LexMAWeather

Lexington, Massachusetts, USA

56°F
10/20/2018 4:36am 
  • Lexington Conditions: Overcast
  • Temperature: 55.9°F / 13.3°CWarmer 0.7°F than last hour.
  • Dew Point: 47.5°FIncreased 1.1°Fsince last hour.
  • Relative Humidity: 73%Increased 1.0% since last hour.
  • Wind: W 2 mph, 10-min avg: 3 mph, gust: 11 mph
  • Barometer: 29.65 inFalling 0.06  inHg/hr Falling Rapidly
  • Visibility: 10 miles
  • Rain Today: 0.00 in
  •   

Nearby Reports - Official Weather Stations - Current Conditions

Data from the National Weather Service

KBED - Bedford, MA


Distance from station: WNW 4mi, 6km

Updated Sat Oct 20, 2018 3:56am EDT

Overcast

Overcast

Wind from SSW

Wind:

SSW 13 mph , 20 km/h

Temperature: 57°F (14°C)

Dew Point: 43°F (6°C)

Humidity: 59%

Barometer: 29.73 in (1006.8 hPa)

Clouds: Overcast

Visibility: 10 miles (16 km)

Cloud details: Overcast 12000 ft


2018/10/20 07:56 KBED 200756Z AUTO 21011KT 10SM OVC120 14/06 A2973 RMK AO2 SLP078 T01390061

KBOS - Boston, MA


Distance from station: ESE 12mi, 20km

Updated Sat Oct 20, 2018 3:54am EDT

Overcast

Overcast

Wind from SSW

Wind:

SSW 20 mph , 31 km/h,
Gust: 26 mph , 43 km/h

Temperature: 57°F (14°C)

Dew Point: 46°F (8°C)

Humidity: 67%

Barometer: 29.74 in (1007.1 hPa)

Clouds: Overcast

Visibility: 10 miles (16 km)

Cloud details: Few Clouds 3000 ft
Overcast 14000 ft


2018/10/20 07:54 KBOS 200754Z 21017G23KT 10SM FEW030 OVC140 14/08 A2974 RMK AO2 SLP071 T01440078

KOWD - Norwood, MA


Distance from station: SSE 18mi, 29km

Updated Sat Oct 20, 2018 3:53am EDT

Partly cloudy

Partly cloudy

Wind from S

Wind:

S 12 mph , 19 km/h,
Gust: 20 mph , 31 km/h

Temperature: 61°F (16°C)

Dew Point: 46°F (8°C)

Humidity: 59%

Barometer: 29.75 in (1007.5 hPa)

Clouds: Partly cloudy

Visibility: 10 miles (16 km)

Cloud details: Partly cloudy 12000 ft


2018/10/20 07:53 KOWD 200753Z AUTO 19010G17KT 10SM SCT120 16/08 A2975 RMK AO2 SLP073 T01560083

KBVY - Beverly, MA


Distance from station: ENE 19mi, 31km

Updated Sat Oct 20, 2018 3:53am EDT

Overcast

Overcast

Wind from SSW

Wind:

SSW 13 mph , 20 km/h,
Gust: 24 mph , 39 km/h

Temperature: 55°F (13°C)

Dew Point: 45°F (7°C)

Humidity: 67%

Barometer: 29.72 in (1006.4 hPa)

Clouds: Overcast

Visibility: 10 miles (16 km)

Cloud details: Overcast 11000 ft


2018/10/20 07:53 KBVY 200753Z AUTO 20011G21KT 10SM OVC110 13/07 A2972 RMK AO2 SLP061 T01330067

KLWM - Lawrence, MA


Distance from station: NNE 20mi, 32km

Updated Sat Oct 20, 2018 3:54am EDT

Overcast

Overcast

Wind from SSW

Wind:

SSW 13 mph , 20 km/h,
Gust: 22 mph , 35 km/h

Temperature: 57°F (14°C)

Dew Point: 43°F (6°C)

Humidity: 59%

Barometer: 29.74 in (1007.1 hPa)

Clouds: Overcast

Visibility: 10 miles (16 km)

Cloud details: Overcast 11000 ft


2018/10/20 07:54 KLWM 200754Z AUTO 21011G19KT 10SM OVC110 14/06 A2974 RMK AO2 SLP070 T01440061

KFIT - Fitchburg, MA


Distance from station: WNW 27mi, 44km

Updated Sat Oct 20, 2018 3:52am EDT

Overcast

Overcast

Wind from SW

Wind:

SW 10 mph , 17 km/h,
Gust: 25 mph , 41 km/h

Temperature: 54°F (12°C)

Dew Point: 43°F (6°C)

Humidity: 67%

Barometer: 29.73 in (1006.8 hPa)

Clouds: Overcast

Visibility: 10 miles (16 km)

Cloud details: Overcast 10000 ft


2018/10/20 07:52 KFIT 200752Z AUTO 22009G22KT 190V250 10SM OVC100 12/06 A2973 RMK AO2 SLP067 T01220056

KASH - Nashua/Boire Fld, NH


Distance from station: NNW 28mi, 44km

Updated Sat Oct 20, 2018 3:56am EDT

Overcast

Overcast

Wind from varies

Wind:

varies 3 mph , 6 km/h

Temperature: 54°F (12°C)

Dew Point: 45°F (7°C)

Humidity: 72%

Barometer: 29.72 in (1006.4 hPa)

Clouds: Overcast

Visibility: 10 miles (16 km)

Cloud details: Few Clouds 3900 ft
Overcast 10000 ft


2018/10/20 07:56 KASH 200756Z AUTO VRB03KT 10SM FEW039 OVC100 12/07 A2972 RMK AO2 SLP073 T01170067

KORH - Worcester, MA


Distance from station: WSW 34mi, 55km

Updated Sat Oct 20, 2018 3:54am EDT

Overcast

Overcast

Wind from SW

Wind:

SW 21 mph , 33 km/h,
Gust: 32 mph , 52 km/h

Temperature: 52°F (11°C)

Dew Point: 43°F (6°C)

Humidity: 72%

Barometer: 29.73 in (1006.8 hPa)

Clouds: Overcast

Visibility: 10 miles (16 km)

Cloud details: Mostly cloudy 9000 ft
Overcast 12000 ft


2018/10/20 07:54 KORH 200754Z AUTO 22018G28KT 10SM BKN090 OVC120 11/06 A2973 RMK AO2 PK WND 22029/0722 SLP070 T01110061

KMHT - Manchester, NH


Distance from station: NNW 35mi, 57km

Updated Sat Oct 20, 2018 3:53am EDT

Overcast

Overcast

Wind from S

Wind:

S 10 mph , 17 km/h

Temperature: 54°F (12°C)

Dew Point: 43°F (6°C)

Humidity: 67%

Barometer: 29.70 in (1005.8 hPa)

Clouds: Overcast

Visibility: 10 miles (16 km)

Cloud details: Mostly cloudy 10000 ft
Overcast 20000 ft


2018/10/20 07:53 KMHT 200753Z 18009KT 10SM BKN100 OVC200 12/06 A2970 RMK AO2 SLP069 T01170056

KGHG - Marshfield, MA


Distance from station: SE 38mi, 60km

Updated Sat Oct 20, 2018 4:15am EDT

Clear

Clear

Wind from SSW

Wind:

SSW 10 mph , 17 km/h,
Gust: 26 mph , 43 km/h

Temperature: 61°F (16°C)

Dew Point: 48°F (9°C)

Humidity: 63%

Barometer: 29.75 in (1007.5 hPa)

Clouds: Clear

Visibility: 10 miles (16 km)


2018/10/20 08:15 KGHG 200815Z AUTO 21009G23KT 10SM CLR 16/09 A2975 RMK AO2

KSFZ - Pawtucket, RI


Distance from station: SSW 39mi, 62km

Updated Sat Oct 20, 2018 3:56am EDT

Overcast

Overcast

Wind from SW

Wind:

SW 7 mph , 11 km/h

Temperature: 55°F (13°C)

Dew Point: 46°F (8°C)

Humidity: 72%

Barometer: 29.77 in (1008.1 hPa)

Clouds: Overcast

Visibility: 10 miles (16 km)

Cloud details: Overcast 9500 ft


2018/10/20 07:56 KSFZ 200756Z AUTO 23006KT 10SM OVC095 13/08 A2977 RMK AO2 SLP026 T01280078

KTAN - Taunton, MA


Distance from station: SSE 40mi, 65km

Updated Sat Oct 20, 2018 3:52am EDT

Mostly cloudy

Mostly cloudy

Wind from SSW

Wind:

SSW 12 mph , 19 km/h,
Gust: 21 mph , 33 km/h

Temperature: 61°F (16°C)

Dew Point: 46°F (8°C)

Humidity: 59%

Barometer: 29.78 in (1008.5 hPa)

Clouds: Mostly cloudy

Visibility: 10 miles (16 km)

Cloud details: Partly cloudy 9000 ft
Mostly cloudy 11000 ft


2018/10/20 07:52 KTAN 200752Z AUTO 21010G18KT 10SM SCT090 BKN110 16/08 A2978 RMK AO2 PRESFR SLP085 T01560083

KPYM - Plymouth, MA


Distance from station: SE 44mi, 72km

Updated Sat Oct 20, 2018 3:52am EDT

Mostly cloudy

Mostly cloudy

Wind from SW

Wind:

SW 18 mph , 30 km/h,
Gust: 26 mph , 43 km/h

Temperature: 61°F (16°C)

Dew Point: 48°F (9°C)

Humidity: 63%

Barometer: 29.79 in (1008.8 hPa)

Clouds: Mostly cloudy

Visibility: 10 miles (16 km)

Cloud details: Mostly cloudy 4200 ft
Mostly cloudy 10000 ft


2018/10/20 07:52 KPYM 200752Z AUTO 22016G23KT 10SM BKN042 BKN100 16/09 A2979 RMK AO2 SLP088 T01610094

KAFN - Jaffrey, NH


Distance from station: WNW 46mi, 74km

Updated Sat Oct 20, 2018 3:52am EDT

Mostly cloudy

Mostly cloudy

Wind from SSW

Wind:

SSW 15 mph , 24 km/h,
Gust: 26 mph , 43 km/h

Temperature: 52°F (11°C)

Dew Point: 43°F (6°C)

Humidity: 72%

Barometer: 29.68 in (1005.1 hPa)

Clouds: Mostly cloudy

Visibility: 10 miles (16 km)

Cloud details: Mostly cloudy 9000 ft
Mostly cloudy 11000 ft


2018/10/20 07:52 KAFN 200752Z AUTO 21013G23KT 10SM BKN090 BKN110 11/06 A2968 RMK AO2 SLP057 T01060061

KPSM - Portsmouth/Pease, NH


Distance from station: NNE 48mi, 78km

Updated Sat Oct 20, 2018 3:56am EDT

Overcast

Overcast

Wind from SW

Wind:

SW 15 mph , 24 km/h,
Gust: 23 mph , 37 km/h

Temperature: 55°F (13°C)

Dew Point: 41°F (5°C)

Humidity: 59%

Barometer: 29.69 in (1005.4 hPa)

Clouds: Overcast

Visibility: 10 miles (16 km)

Cloud details: Few Clouds 7000 ft
Mostly cloudy 9000 ft
Overcast 12000 ft


2018/10/20 07:56 KPSM 200756Z 22013G20KT 10SM FEW070 BKN090 OVC120 13/05 A2969 RMK AO2A SLP056 T01270051

KPVD - Providence/Green, RI


Distance from station: S 51mi, 82km

Updated Sat Oct 20, 2018 3:51am EDT

Overcast

Overcast

Wind from SSW

Wind:

SSW 14 mph , 22 km/h

Temperature: 57°F (14°C)

Dew Point: 46°F (8°C)

Humidity: 67%

Barometer: 29.78 in (1008.5 hPa)

Clouds: Overcast

Visibility: 10 miles (16 km)

Cloud details: Few Clouds 7000 ft
Mostly cloudy 9000 ft
Overcast 10000 ft


2018/10/20 07:51 KPVD 200751Z 21012KT 10SM FEW070 BKN090 OVC100 14/08 A2978 RMK AO2 RAB36E47 SLP084 P0000 T01440083

KCON - Concord, NH


Distance from station: NNW 54mi, 87km

Updated Sat Oct 20, 2018 3:51am EDT

Overcast

Overcast

Wind from varies

Wind:

varies 3 mph , 6 km/h

Temperature: 52°F (11°C)

Dew Point: 43°F (6°C)

Humidity: 72%

Barometer: 29.70 in (1005.8 hPa)

Clouds: Overcast

Visibility: 10 miles (16 km)

Cloud details: Overcast 11000 ft


2018/10/20 07:51 KCON 200751Z AUTO VRB03KT 10SM OVC110 11/06 A2970 RMK AO2 SLP056 T01060056

KEWB - New Bedford, MA


Distance from station: SSE 54mi, 87km

Updated Sat Oct 20, 2018 3:53am EDT

Light rain, Overcast

Light rain, Overcast

Wind from SW

Wind:

SW 13 mph , 20 km/h,
Gust: 20 mph , 31 km/h

Temperature: 59°F (15°C)

Dew Point: 52°F (11°C)

Humidity: 77%

Barometer: 29.79 in (1008.8 hPa)

Summary: Light rain

Clouds: Overcast

Visibility: 10 miles (16 km)

Cloud details: Few Clouds 4700 ft
Mostly cloudy 8000 ft
Overcast 10000 ft


2018/10/20 07:53 KEWB 200753Z AUTO 23011G17KT 10SM -RA FEW047 BKN080 OVC100 15/11 A2979 RMK AO2 RAB43 SLP088 P0000 T01500106

KMWN - Mount Washington, NH


Distance from station: N 126mi, 203km

Updated Sat Oct 20, 2018 3:53am EDT

Overcast

Overcast

Wind from WSW

Wind:

WSW 60 mph , 96 km/h,
Gust: 70 mph , 113 km/h

Temperature: 28°F (-2°C)

Wind Chill: 7°F (-14°C)

Dew Point: 19°F (-7°C)

Humidity: 69%

Clouds: Overcast

Visibility: 60 miles (96 km)

Cloud details: Few Clouds 1000 ft
Partly cloudy 2500 ft
Overcast 5000 ft


2018/10/20 07:53 KMWN 200753Z 25052G61KT 60SM FEW010 SCT025 OVC050 M02/M07 RMK VIRGA OHD